Time;durP1;ratioP1;P1;durP2;ratioP2;P2;SDS_P1;SDS_P2;PMS_P1;PMS_P2;Temp;Humidity;BMP_temperature;BMP_pressure;BME280_temperature;BME280_humidity;BME280_pressure;Samples;Min_cycle;Max_cycle;Signal;HPM_P1;HPM_P2
2023/08/18 00:00:22;;;;;;;;;;;15.40;99.90;;;;;;5099697;28;19951;-69
2023/08/18 00:02:48;;;;;;;;;;;15.40;99.90;;;;;;5113560;28;19912;-71
2023/08/18 00:05:15;;;;;;;;;;;15.60;99.90;;;;;;5114229;28;20599;-70
2023/08/18 00:07:42;;;;;;;;;;;15.70;99.90;;;;;;5114713;28;19915;-69
2023/08/18 00:10:09;;;;;;;;;;;15.80;99.90;;;;;;5110174;28;19919;-69
2023/08/18 00:12:37;;;;;;;;;;;15.90;99.90;;;;;;5095846;28;19916;-68
2023/08/18 00:15:04;;;;;;;;;;;15.90;99.90;;;;;;5094023;28;19908;-70
2023/08/18 00:17:31;;;;;;;;;;;16.00;99.90;;;;;;5093586;28;19927;-68
2023/08/18 00:19:57;;;;;;;;;;;15.90;99.90;;;;;;5107843;28;19979;-70
2023/08/18 00:22:24;;;;;;;;;;;15.90;99.90;;;;;;5103140;28;19912;-70
2023/08/18 00:24:51;;;;;;;;;;;16.00;99.90;;;;;;5100102;28;19919;-70
2023/08/18 00:27:18;;;;;;;;;;;16.20;99.90;;;;;;5113083;28;19908;-71
2023/08/18 00:29:44;;;;;;;;;;;16.20;99.90;;;;;;5113700;28;19943;-70
2023/08/18 00:32:12;;;;;;;;;;;16.40;99.00;;;;;;5113395;28;19922;-71
2023/08/18 00:34:38;;;;;;;;;;;16.50;99.70;;;;;;5078425;28;19947;-71
2023/08/18 00:37:05;;;;;;;;;;;16.50;99.50;;;;;;5113322;28;20384;-71
2023/08/18 00:39:32;;;;;;;;;;;16.60;99.40;;;;;;5103052;28;19922;-72
2023/08/18 00:41:58;;;;;;;;;;;16.60;99.30;;;;;;5095595;28;20267;-70
2023/08/18 00:44:26;;;;;;;;;;;16.70;98.80;;;;;;5106371;28;19973;-70
2023/08/18 00:46:53;;;;;;;;;;;16.80;98.10;;;;;;5111591;28;20368;-70
2023/08/18 00:49:21;;;;;;;;;;;16.80;98.20;;;;;;5100805;28;20388;-71
2023/08/18 00:51:48;;;;;;;;;;;16.80;98.10;;;;;;5122241;27;20411;-71
2023/08/18 00:54:15;;;;;;;;;;;17.00;98.40;;;;;;5113122;28;19995;-70
2023/08/18 00:56:46;;;;;;;;;;;17.10;96.90;;;;;;5090578;28;20360;-69
2023/08/18 00:59:13;;;;;;;;;;;17.10;96.60;;;;;;5099106;28;19914;-70
2023/08/18 01:01:41;;;;;;;;;;;17.30;96.50;;;;;;5111265;28;20044;-70
2023/08/18 01:04:08;;;;;;;;;;;17.40;95.60;;;;;;5103368;28;19965;-70
2023/08/18 01:06:38;;;;;;;;;;;17.40;94.10;;;;;;5111705;28;19916;-69
2023/08/18 01:09:06;;;;;;;;;;;17.60;94.00;;;;;;5112269;28;19912;-70
2023/08/18 01:11:48;;;;;;;;;;;17.50;94.00;;;;;;5112554;28;19924;-69
2023/08/18 01:14:22;;;;;;;;;;;17.60;93.80;;;;;;5110494;28;19920;-69
2023/08/18 01:16:51;;;;;;;;;;;17.70;93.10;;;;;;5092599;28;19915;-69
2023/08/18 01:19:21;;;;;;;;;;;17.70;93.10;;;;;;5092557;28;19908;-70
2023/08/18 01:21:55;;;;;;;;;;;17.70;92.30;;;;;;5110099;28;19916;-71
2023/08/18 01:24:24;;;;;;;;;;;17.80;93.20;;;;;;5113301;28;19969;-70
2023/08/18 01:26:52;;;;;;;;;;;17.80;93.20;;;;;;5113058;28;19907;-69
2023/08/18 01:29:20;;;;;;;;;;;17.90;93.30;;;;;;5112460;28;20023;-71
2023/08/18 01:31:48;;;;;;;;;;;17.90;93.70;;;;;;5112269;28;20379;-71
2023/08/18 01:34:16;;;;;;;;;;;17.80;92.30;;;;;;5104270;28;19995;-69
2023/08/18 01:36:44;;;;;;;;;;;17.70;92.20;;;;;;5076139;28;19973;-69
2023/08/18 01:39:11;;;;;;;;;;;17.80;91.70;;;;;;5093058;28;19916;-69
2023/08/18 01:41:38;;;;;;;;;;;17.80;91.60;;;;;;5097599;28;19908;-71
2023/08/18 01:44:09;;;;;;;;;;;18.00;91.90;;;;;;5093312;28;20025;-71
2023/08/18 01:46:35;;;;;;;;;;;18.00;91.60;;;;;;5092612;28;19912;-69
2023/08/18 01:49:02;;;;;;;;;;;18.10;91.90;;;;;;5092196;28;20330;-69
2023/08/18 01:51:29;;;;;;;;;;;18.10;91.40;;;;;;5105241;28;19915;-70
2023/08/18 01:53:55;;;;;;;;;;;18.20;91.10;;;;;;5112174;28;19918;-70
2023/08/18 01:56:22;;;;;;;;;;;18.40;91.20;;;;;;5112618;28;19914;-71
2023/08/18 01:58:49;;;;;;;;;;;18.60;91.40;;;;;;5093294;28;19930;-71
2023/08/18 02:01:15;;;;;;;;;;;18.90;90.60;;;;;;5099062;28;19914;-71
2023/08/18 02:03:42;;;;;;;;;;;19.00;89.50;;;;;;5092275;28;19912;-70
2023/08/18 02:06:09;;;;;;;;;;;19.00;89.00;;;;;;5092324;28;19908;-71
2023/08/18 02:08:36;;;;;;;;;;;19.10;87.20;;;;;;5110087;28;19908;-69
2023/08/18 02:11:03;;;;;;;;;;;19.10;86.50;;;;;;5111442;28;19916;-67
2023/08/18 02:13:31;;;;;;;;;;;19.20;86.10;;;;;;5093629;28;19946;-70
2023/08/18 02:15:58;;;;;;;;;;;19.30;84.70;;;;;;5112300;28;19908;-70
2023/08/18 02:18:24;;;;;;;;;;;19.30;84.20;;;;;;5099841;28;19953;-72
2023/08/18 02:20:58;;;;;;;;;;;19.30;84.60;;;;;;5111069;28;19959;-72
2023/08/18 02:23:25;;;;;;;;;;;19.30;83.50;;;;;;5111724;28;19923;-72
2023/08/18 02:25:58;;;;;;;;;;;19.30;83.10;;;;;;5111918;28;20006;-71
2023/08/18 02:28:26;;;;;;;;;;;19.40;84.80;;;;;;5112295;28;19908;-71
2023/08/18 02:31:03;;;;;;;;;;;19.70;83.10;;;;;;5081873;28;19916;-68
2023/08/18 02:33:30;;;;;;;;;;;20.00;82.40;;;;;;5091693;28;20383;-71
2023/08/18 02:35:59;;;;;;;;;;;19.90;80.30;;;;;;5108910;28;20352;-70
2023/08/18 02:38:26;;;;;;;;;;;19.90;81.10;;;;;;5111614;28;19912;-71
2023/08/18 02:40:52;;;;;;;;;;;20.10;81.00;;;;;;5108901;28;19998;-70
2023/08/18 02:43:20;;;;;;;;;;;20.70;78.90;;;;;;5112073;28;19916;-69
2023/08/18 02:45:47;;;;;;;;;;;21.50;77.30;;;;;;5111904;28;19914;-69
2023/08/18 02:48:15;;;;;;;;;;;22.40;74.90;;;;;;5111925;28;20275;-68
2023/08/18 02:50:41;;;;;;;;;;;23.20;74.10;;;;;;5108940;28;20376;-69
2023/08/18 02:53:08;;;;;;;;;;;24.00;68.00;;;;;;5073460;28;19919;-70
2023/08/18 02:55:35;;;;;;;;;;;24.10;68.50;;;;;;5095705;28;19919;-69
2023/08/18 02:58:03;;;;;;;;;;;24.00;64.30;;;;;;5110752;28;19908;-69
2023/08/18 03:00:31;;;;;;;;;;;23.60;65.40;;;;;;5110592;28;20386;-70
2023/08/18 03:02:59;;;;;;;;;;;24.00;63.90;;;;;;5111469;28;19970;-71
2023/08/18 03:05:25;;;;;;;;;;;24.20;63.10;;;;;;5111780;28;20006;-71
2023/08/18 03:07:52;;;;;;;;;;;24.40;62.90;;;;;;5109101;28;19926;-71
2023/08/18 03:10:19;;;;;;;;;;;24.70;62.70;;;;;;5096338;28;19916;-70
2023/08/18 03:12:45;;;;;;;;;;;25.00;62.40;;;;;;5115184;28;19973;-70
2023/08/18 03:15:13;;;;;;;;;;;25.40;61.00;;;;;;5097091;28;19918;-71
2023/08/18 03:17:40;;;;;;;;;;;25.00;61.00;;;;;;5095026;28;19929;-71
2023/08/18 03:20:07;;;;;;;;;;;24.80;61.00;;;;;;5098260;28;19912;-71
2023/08/18 03:22:34;;;;;;;;;;;24.50;61.50;;;;;;5114740;28;19908;-71
2023/08/18 03:25:02;;;;;;;;;;;24.30;62.20;;;;;;5115321;28;20321;-69
2023/08/18 03:27:28;;;;;;;;;;;23.90;62.70;;;;;;5097485;28;19912;-71
2023/08/18 03:29:55;;;;;;;;;;;24.30;63.00;;;;;;5096411;28;19908;-70
2023/08/18 03:32:25;;;;;;;;;;;24.80;62.80;;;;;;5114621;28;19915;-71
2023/08/18 03:34:54;;;;;;;;;;;25.40;60.10;;;;;;5115240;28;19907;-72
2023/08/18 03:37:21;;;;;;;;;;;26.30;60.40;;;;;;5115394;28;19908;-72
2023/08/18 03:39:48;;;;;;;;;;;27.20;58.40;;;;;;5114106;28;20280;-72
2023/08/18 03:42:15;;;;;;;;;;;27.40;56.70;;;;;;5096124;28;19918;-71
2023/08/18 03:44:42;;;;;;;;;;;27.10;56.70;;;;;;5112994;28;19919;-71
2023/08/18 03:47:08;;;;;;;;;;;27.20;56.60;;;;;;5114556;28;19964;-69
2023/08/18 03:49:35;;;;;;;;;;;27.70;56.50;;;;;;5114636;28;20379;-71
2023/08/18 03:52:02;;;;;;;;;;;28.50;55.20;;;;;;5095015;28;20437;-72
2023/08/18 03:54:28;;;;;;;;;;;28.30;54.30;;;;;;5094118;28;19908;-72
2023/08/18 03:56:55;;;;;;;;;;;27.80;55.00;;;;;;5094255;28;20374;-72
2023/08/18 03:59:25;;;;;;;;;;;27.70;53.80;;;;;;5110819;28;19960;-72
2023/08/18 04:01:52;;;;;;;;;;;27.40;54.00;;;;;;5095776;28;19943;-72
2023/08/18 04:04:18;;;;;;;;;;;27.50;53.00;;;;;;5095657;28;19916;-71
2023/08/18 04:06:45;;;;;;;;;;;27.90;53.30;;;;;;5094566;28;20385;-72
2023/08/18 04:09:18;;;;;;;;;;;27.70;51.70;;;;;;5094373;28;19947;-70
2023/08/18 04:11:44;;;;;;;;;;;27.80;52.00;;;;;;5096578;28;19959;-68
2023/08/18 04:14:11;;;;;;;;;;;27.40;51.30;;;;;;5113156;28;19922;-70
2023/08/18 04:16:38;;;;;;;;;;;27.00;52.60;;;;;;5114550;28;19930;-70
2023/08/18 04:19:05;;;;;;;;;;;27.20;52.10;;;;;;5114630;28;19930;-71
2023/08/18 04:21:32;;;;;;;;;;;26.40;51.50;;;;;;5080175;28;19908;-71
2023/08/18 04:24:00;;;;;;;;;;;26.40;52.70;;;;;;5109640;28;19955;-70
2023/08/18 04:26:29;;;;;;;;;;;26.20;52.40;;;;;;5114208;28;19990;-72
2023/08/18 04:28:56;;;;;;;;;;;26.40;52.60;;;;;;5113951;28;19912;-72
2023/08/18 04:31:22;;;;;;;;;;;26.70;51.80;;;;;;5099654;28;19923;-72
2023/08/18 04:33:49;;;;;;;;;;;26.70;52.80;;;;;;5093383;28;19924;-72
2023/08/18 04:36:16;;;;;;;;;;;26.70;52.60;;;;;;5107985;28;19994;-70
2023/08/18 04:38:43;;;;;;;;;;;26.90;52.30;;;;;;5113871;28;19919;-71
2023/08/18 04:41:09;;;;;;;;;;;27.20;52.00;;;;;;5112738;28;19912;-73
2023/08/18 04:43:36;;;;;;;;;;;27.30;50.70;;;;;;5111765;28;19916;-70
2023/08/18 04:46:03;;;;;;;;;;;27.10;51.20;;;;;;5109727;28;19912;-73
2023/08/18 04:48:29;;;;;;;;;;;27.00;51.00;;;;;;5113783;28;19908;-71
2023/08/18 04:50:56;;;;;;;;;;;26.80;51.00;;;;;;5113079;28;19956;-72
2023/08/18 04:53:23;;;;;;;;;;;26.40;51.70;;;;;;5113176;28;19976;-71
2023/08/18 04:55:50;;;;;;;;;;;26.80;51.00;;;;;;5113119;28;20380;-71
2023/08/18 04:58:17;;;;;;;;;;;27.10;51.80;;;;;;5111979;28;19908;-70
2023/08/18 05:00:44;;;;;;;;;;;27.20;51.50;;;;;;5087950;28;19912;-68
2023/08/18 05:03:11;;;;;;;;;;;26.70;50.80;;;;;;5111626;28;19989;-69
2023/08/18 05:05:39;;;;;;;;;;;26.50;52.10;;;;;;5112459;28;19914;-72
2023/08/18 05:08:06;;;;;;;;;;;26.60;50.70;;;;;;5101933;28;19908;-70
2023/08/18 05:10:33;;;;;;;;;;;26.30;51.90;;;;;;5108886;28;19923;-72
2023/08/18 05:12:59;;;;;;;;;;;26.30;51.90;;;;;;5113249;28;19912;-72
2023/08/18 05:15:26;;;;;;;;;;;27.00;51.60;;;;;;5111928;28;20001;-70
2023/08/18 05:17:54;;;;;;;;;;;27.10;50.50;;;;;;5112829;28;20249;-71
2023/08/18 05:20:21;;;;;;;;;;;26.90;50.80;;;;;;5111173;28;19912;-71
2023/08/18 05:22:47;;;;;;;;;;;26.70;50.70;;;;;;5112322;28;19934;-70
2023/08/18 05:25:14;;;;;;;;;;;26.40;51.60;;;;;;5112197;28;19915;-71
2023/08/18 05:27:41;;;;;;;;;;;26.80;52.50;;;;;;5088008;28;19952;-72
2023/08/18 05:30:08;;;;;;;;;;;27.20;50.90;;;;;;5102496;28;19919;-71
2023/08/18 05:32:37;;;;;;;;;;;27.30;50.60;;;;;;5109393;28;19915;-69
2023/08/18 05:35:04;;;;;;;;;;;26.90;51.40;;;;;;5091835;28;19908;-70
2023/08/18 05:37:31;;;;;;;;;;;27.20;51.60;;;;;;5111820;28;19908;-72
2023/08/18 05:39:58;;;;;;;;;;;27.60;51.60;;;;;;5110293;28;19908;-72
2023/08/18 05:42:24;;;;;;;;;;;27.70;50.50;;;;;;5110443;28;20448;-71
2023/08/18 05:44:51;;;;;;;;;;;27.20;50.80;;;;;;5107942;28;19963;-71
2023/08/18 05:47:18;;;;;;;;;;;27.50;51.80;;;;;;5111393;28;19915;-71
2023/08/18 05:49:44;;;;;;;;;;;27.50;50.90;;;;;;5111750;28;20281;-72
2023/08/18 05:52:11;;;;;;;;;;;27.30;50.90;;;;;;5106857;28;19920;-72
2023/08/18 05:54:38;;;;;;;;;;;27.40;52.00;;;;;;5111804;28;19914;-70
2023/08/18 05:57:04;;;;;;;;;;;26.70;50.50;;;;;;5111759;28;19914;-71
2023/08/18 05:59:32;;;;;;;;;;;26.60;51.30;;;;;;5112105;28;19908;-71
2023/08/18 06:01:58;;;;;;;;;;;26.50;51.20;;;;;;5101325;28;19915;-71
2023/08/18 06:04:25;;;;;;;;;;;26.90;51.40;;;;;;5112081;28;20361;-71
2023/08/18 06:06:52;;;;;;;;;;;27.30;51.60;;;;;;5112006;28;19954;-72
2023/08/18 06:09:19;;;;;;;;;;;27.00;51.60;;;;;;5111834;28;20356;-73
2023/08/18 06:11:46;;;;;;;;;;;27.00;50.90;;;;;;5107950;28;19923;-70
2023/08/18 06:14:12;;;;;;;;;;;26.70;50.90;;;;;;5111703;28;19915;-72
2023/08/18 06:16:39;;;;;;;;;;;27.00;51.50;;;;;;5112032;28;19907;-69
2023/08/18 06:19:06;;;;;;;;;;;26.80;51.00;;;;;;5111368;28;19908;-71
2023/08/18 06:21:32;;;;;;;;;;;26.00;51.80;;;;;;5109221;28;19985;-69
2023/08/18 06:24:01;;;;;;;;;;;25.10;52.90;;;;;;5106172;28;19911;-74
2023/08/18 06:26:27;;;;;;;;;;;24.50;53.80;;;;;;5111252;28;19908;-74
2023/08/18 06:28:54;;;;;;;;;;;24.10;55.00;;;;;;5110606;28;19962;-73
2023/08/18 06:31:20;;;;;;;;;;;23.90;55.30;;;;;;5109093;28;19977;-73
2023/08/18 06:33:47;;;;;;;;;;;23.90;55.40;;;;;;5110583;28;19951;-76
2023/08/18 06:36:14;;;;;;;;;;;23.60;55.80;;;;;;5093589;28;19912;-74
2023/08/18 06:38:40;;;;;;;;;;;23.20;56.60;;;;;;5091892;28;19916;-72
2023/08/18 06:41:12;;;;;;;;;;;22.90;56.60;;;;;;5095883;28;19912;-71
2023/08/18 06:43:39;;;;;;;;;;;22.30;57.60;;;;;;5110669;28;19919;-73
2023/08/18 06:46:06;;;;;;;;;;;21.60;58.20;;;;;;5111530;28;20448;-73
2023/08/18 06:48:33;;;;;;;;;;;21.60;58.30;;;;;;5114898;28;20006;-72
2023/08/18 06:50:59;;;;;;;;;;;21.00;59.60;;;;;;5113702;28;19916;-71
2023/08/18 06:53:27;;;;;;;;;;;20.30;60.50;;;;;;5113327;28;19915;-75
2023/08/18 06:55:56;;;;;;;;;;;19.60;62.10;;;;;;5115378;28;20373;-72
2023/08/18 06:58:22;;;;;;;;;;;18.90;62.90;;;;;;5115597;28;20237;-68
2023/08/18 07:00:49;;;;;;;;;;;18.20;63.60;;;;;;5110328;28;20010;-68
2023/08/18 07:03:16;;;;;;;;;;;17.90;64.70;;;;;;5105907;27;19912;-73
2023/08/18 07:05:43;;;;;;;;;;;17.60;65.90;;;;;;5113289;28;19912;-72
2023/08/18 07:08:10;;;;;;;;;;;17.30;66.10;;;;;;5095532;28;19912;-75
2023/08/18 07:10:37;;;;;;;;;;;17.10;67.00;;;;;;5108690;28;19927;-73
2023/08/18 07:13:03;;;;;;;;;;;16.90;66.70;;;;;;5110313;28;19999;-70
2023/08/18 07:15:30;;;;;;;;;;;16.80;67.70;;;;;;5104877;28;19965;-71
2023/08/18 07:17:57;;;;;;;;;;;16.70;67.40;;;;;;5113890;28;19912;-72
2023/08/18 07:20:24;;;;;;;;;;;16.60;67.80;;;;;;5098639;28;19920;-71
2023/08/18 07:22:50;;;;;;;;;;;16.40;68.40;;;;;;5111137;27;19966;-70
2023/08/18 07:25:17;;;;;;;;;;;16.40;69.00;;;;;;5098455;28;20020;-70
2023/08/18 07:27:44;;;;;;;;;;;16.30;69.00;;;;;;5111161;27;20640;-73
2023/08/18 07:30:11;;;;;;;;;;;16.20;69.50;;;;;;5109527;28;19942;-72
2023/08/18 07:32:37;;;;;;;;;;;16.10;69.80;;;;;;5112395;27;20431;-69
2023/08/18 07:35:08;;;;;;;;;;;16.00;69.90;;;;;;5109375;28;20022;-71
2023/08/18 07:37:35;;;;;;;;;;;15.90;69.50;;;;;;5094804;28;19912;-70
2023/08/18 07:40:05;;;;;;;;;;;15.90;69.60;;;;;;5108915;28;19922;-70
2023/08/18 07:42:32;;;;;;;;;;;15.70;70.60;;;;;;5103219;27;19925;-69
2023/08/18 07:44:59;;;;;;;;;;;15.70;71.00;;;;;;5111352;28;19924;-72
2023/08/18 07:47:25;;;;;;;;;;;15.60;71.00;;;;;;5112627;28;19912;-71
2023/08/18 07:49:52;;;;;;;;;;;15.50;71.30;;;;;;5111036;28;19941;-76
2023/08/18 07:52:19;;;;;;;;;;;15.50;71.80;;;;;;5092092;28;19934;-72
2023/08/18 07:54:46;;;;;;;;;;;15.30;72.00;;;;;;5108927;28;19912;-69
2023/08/18 07:57:12;;;;;;;;;;;15.30;71.90;;;;;;5105610;27;20272;-69
2023/08/18 07:59:39;;;;;;;;;;;15.30;72.50;;;;;;5112671;28;19947;-76
2023/08/18 08:02:06;;;;;;;;;;;15.20;72.50;;;;;;5096287;27;20363;-75
2023/08/18 08:04:32;;;;;;;;;;;15.10;72.40;;;;;;5096008;28;19912;-70
2023/08/18 08:06:59;;;;;;;;;;;15.10;73.00;;;;;;5109983;28;19916;-70
2023/08/18 08:09:26;;;;;;;;;;;15.00;73.00;;;;;;5113763;28;20008;-74
2023/08/18 08:11:53;;;;;;;;;;;15.00;73.30;;;;;;5108737;28;19927;-70
2023/08/18 08:14:20;;;;;;;;;;;14.90;73.80;;;;;;5094407;28;19916;-71
2023/08/18 08:16:46;;;;;;;;;;;14.80;74.40;;;;;;5113011;28;20002;-70
2023/08/18 08:19:13;;;;;;;;;;;14.70;74.20;;;;;;5122473;27;19931;-71
2023/08/18 08:21:44;;;;;;;;;;;14.70;74.60;;;;;;5111831;28;19950;-70
2023/08/18 08:24:10;;;;;;;;;;;14.60;75.30;;;;;;5107857;27;19919;-72
2023/08/18 08:26:37;;;;;;;;;;;14.60;75.70;;;;;;5113440;28;19914;-71
2023/08/18 08:29:04;;;;;;;;;;;14.60;76.20;;;;;;5106871;28;19919;-70
2023/08/18 08:31:31;;;;;;;;;;;14.50;76.10;;;;;;5105233;28;19912;-70
2023/08/18 08:33:58;;;;;;;;;;;14.50;76.10;;;;;;5099743;28;19935;-73
2023/08/18 08:36:25;;;;;;;;;;;14.40;77.10;;;;;;5093493;28;19908;-68
2023/08/18 08:38:52;;;;;;;;;;;14.40;76.80;;;;;;5107366;28;19943;-70
2023/08/18 08:41:18;;;;;;;;;;;14.40;77.20;;;;;;5112529;28;19988;-70
2023/08/18 08:43:45;;;;;;;;;;;14.40;77.10;;;;;;5107100;27;19916;-73
2023/08/18 08:46:12;;;;;;;;;;;14.30;77.60;;;;;;5112879;28;19908;-71
2023/08/18 08:48:45;;;;;;;;;;;14.30;78.20;;;;;;5111652;28;19911;-72
2023/08/18 08:51:12;;;;;;;;;;;14.20;78.90;;;;;;5101648;28;19916;-71
2023/08/18 08:53:46;;;;;;;;;;;14.20;78.80;;;;;;5097148;28;19938;-69
2023/08/18 08:56:14;;;;;;;;;;;14.20;78.60;;;;;;5107229;28;20408;-72
2023/08/18 08:58:41;;;;;;;;;;;14.10;79.00;;;;;;5108213;28;19923;-71
2023/08/18 09:01:08;;;;;;;;;;;14.10;79.00;;;;;;5093630;28;19912;-73
2023/08/18 09:03:34;;;;;;;;;;;14.10;78.90;;;;;;5108528;28;19916;-70
2023/08/18 09:06:01;;;;;;;;;;;14.00;79.50;;;;;;5106313;28;20022;-69
2023/08/18 09:08:28;;;;;;;;;;;14.00;79.70;;;;;;5105195;28;19912;-70
2023/08/18 09:10:55;;;;;;;;;;;14.00;79.40;;;;;;5106355;28;19916;-70
2023/08/18 09:13:22;;;;;;;;;;;13.90;79.70;;;;;;5107148;28;19957;-72
2023/08/18 09:15:48;;;;;;;;;;;13.90;79.40;;;;;;5093824;28;19995;-71
2023/08/18 09:18:15;;;;;;;;;;;13.90;79.90;;;;;;5112351;28;19908;-72
2023/08/18 09:20:45;;;;;;;;;;;13.80;80.10;;;;;;5112257;28;19999;-74
2023/08/18 09:23:12;;;;;;;;;;;13.90;79.90;;;;;;5113132;28;19998;-72
2023/08/18 09:25:39;;;;;;;;;;;13.90;80.40;;;;;;5112532;28;20291;-73
2023/08/18 09:28:06;;;;;;;;;;;13.80;80.30;;;;;;5112260;28;19911;-73
2023/08/18 09:30:33;;;;;;;;;;;13.80;80.80;;;;;;5111242;28;20411;-73
2023/08/18 09:33:03;;;;;;;;;;;13.70;80.90;;;;;;5111196;28;20010;-74
2023/08/18 09:35:36;;;;;;;;;;;13.80;81.10;;;;;;5111814;28;19931;-72
2023/08/18 09:38:03;;;;;;;;;;;13.60;81.40;;;;;;5103754;28;20629;-71
2023/08/18 09:40:30;;;;;;;;;;;13.60;81.80;;;;;;5094915;28;19966;-73
2023/08/18 09:42:57;;;;;;;;;;;13.60;81.60;;;;;;5103831;28;19911;-74
2023/08/18 09:45:24;;;;;;;;;;;13.60;82.10;;;;;;5092083;28;19981;-72
2023/08/18 09:47:57;;;;;;;;;;;13.50;82.10;;;;;;5092787;28;19962;-75
2023/08/18 09:50:27;;;;;;;;;;;13.50;82.60;;;;;;5092793;28;19912;-73
2023/08/18 09:52:55;;;;;;;;;;;13.50;82.80;;;;;;5092875;28;19916;-72
2023/08/18 09:55:25;;;;;;;;;;;13.40;82.80;;;;;;5092900;28;19908;-75
2023/08/18 09:57:57;;;;;;;;;;;13.40;83.00;;;;;;5092897;28;19931;-72
2023/08/18 10:00:24;;;;;;;;;;;13.40;83.50;;;;;;5104994;28;20041;-72
2023/08/18 10:02:55;;;;;;;;;;;13.40;83.30;;;;;;5093278;28;19908;-73
2023/08/18 10:05:21;;;;;;;;;;;13.30;83.40;;;;;;5092917;28;19908;-74
2023/08/18 10:07:48;;;;;;;;;;;13.20;83.60;;;;;;5093059;28;19908;-73
2023/08/18 10:10:15;;;;;;;;;;;13.30;83.70;;;;;;5093401;28;19912;-73
2023/08/18 10:12:42;;;;;;;;;;;13.20;84.10;;;;;;5092787;28;20285;-72
2023/08/18 10:15:09;;;;;;;;;;;13.10;84.50;;;;;;5092752;28;20023;-73
2023/08/18 10:17:35;;;;;;;;;;;13.10;85.10;;;;;;5105763;28;19912;-72
2023/08/18 10:20:03;;;;;;;;;;;13.10;84.90;;;;;;5112604;28;19911;-72
2023/08/18 10:22:30;;;;;;;;;;;13.00;85.20;;;;;;5116416;28;19914;-72
2023/08/18 10:24:57;;;;;;;;;;;13.00;85.70;;;;;;5117076;28;20006;-72
2023/08/18 10:27:27;;;;;;;;;;;13.00;85.30;;;;;;5117090;28;19907;-73
2023/08/18 10:30:00;;;;;;;;;;;13.00;85.50;;;;;;5116681;28;19914;-72
2023/08/18 10:32:27;;;;;;;;;;;13.00;85.60;;;;;;5100683;28;19920;-73
2023/08/18 10:35:13;;;;;;;;;;;12.90;85.60;;;;;;5103397;28;19908;-71
2023/08/18 10:37:42;;;;;;;;;;;13.00;85.90;;;;;;5116926;28;19969;-73
2023/08/18 10:40:09;;;;;;;;;;;13.00;86.40;;;;;;5097149;28;19916;-74
2023/08/18 10:42:36;;;;;;;;;;;12.90;86.40;;;;;;5096328;28;19912;-73
2023/08/18 10:45:06;;;;;;;;;;;12.90;86.40;;;;;;5104622;28;19972;-72
2023/08/18 10:47:34;;;;;;;;;;;12.90;86.90;;;;;;5116988;28;19908;-72
2023/08/18 10:50:04;;;;;;;;;;;12.90;86.60;;;;;;5116480;28;19912;-72
2023/08/18 10:52:31;;;;;;;;;;;12.90;86.50;;;;;;5116339;28;20315;-71
2023/08/18 10:54:57;;;;;;;;;;;12.90;86.60;;;;;;5115804;28;20379;-72
2023/08/18 10:57:24;;;;;;;;;;;12.90;87.00;;;;;;5098216;28;19915;-71
2023/08/18 10:59:51;;;;;;;;;;;12.80;87.50;;;;;;5116051;28;19956;-72
2023/08/18 11:02:17;;;;;;;;;;;12.70;87.20;;;;;;5098147;28;19914;-73
2023/08/18 11:04:44;;;;;;;;;;;12.80;87.30;;;;;;5097810;28;19908;-73
2023/08/18 11:07:11;;;;;;;;;;;12.80;88.00;;;;;;5116408;28;19912;-72
2023/08/18 11:09:38;;;;;;;;;;;12.70;87.70;;;;;;5102876;28;19912;-71
2023/08/18 11:12:05;;;;;;;;;;;12.70;87.80;;;;;;5095849;28;19956;-73
2023/08/18 11:14:31;;;;;;;;;;;12.60;87.60;;;;;;5095789;28;19916;-73
2023/08/18 11:16:59;;;;;;;;;;;12.60;88.20;;;;;;5095627;28;19908;-73
2023/08/18 11:19:25;;;;;;;;;;;12.60;88.10;;;;;;5095667;28;19919;-71
2023/08/18 11:21:52;;;;;;;;;;;12.50;88.40;;;;;;5095564;28;19908;-72
2023/08/18 11:24:19;;;;;;;;;;;12.60;88.30;;;;;;5095837;28;20003;-71
2023/08/18 11:26:47;;;;;;;;;;;12.60;88.00;;;;;;5095739;28;19904;-71
2023/08/18 11:29:14;;;;;;;;;;;12.60;87.30;;;;;;5111602;28;20368;-70
2023/08/18 11:31:42;;;;;;;;;;;12.60;86.70;;;;;;5114561;28;19926;-72
2023/08/18 11:34:10;;;;;;;;;;;12.70;86.90;;;;;;5112733;28;19915;-72
2023/08/18 11:36:38;;;;;;;;;;;12.60;86.10;;;;;;5095303;28;19908;-73
2023/08/18 11:39:09;;;;;;;;;;;12.60;85.60;;;;;;5095117;28;20369;-70
2023/08/18 11:41:37;;;;;;;;;;;12.60;85.20;;;;;;5098150;28;19915;-71
2023/08/18 11:44:04;;;;;;;;;;;12.70;84.80;;;;;;5115588;28;19916;-72
2023/08/18 11:46:31;;;;;;;;;;;12.70;84.30;;;;;;5115649;28;20296;-69
2023/08/18 11:49:00;;;;;;;;;;;12.80;84.60;;;;;;5115207;28;19907;-71
2023/08/18 11:51:26;;;;;;;;;;;12.70;84.40;;;;;;5115411;28;20456;-71
2023/08/18 11:53:53;;;;;;;;;;;12.70;84.70;;;;;;5115355;28;19987;-72
2023/08/18 11:56:20;;;;;;;;;;;12.70;84.70;;;;;;5097202;28;19915;-71
2023/08/18 11:58:47;;;;;;;;;;;12.70;84.50;;;;;;5115109;28;19925;-72
2023/08/18 12:01:13;;;;;;;;;;;12.70;84.80;;;;;;5097136;28;19915;-71
2023/08/18 12:03:40;;;;;;;;;;;12.60;84.40;;;;;;5115513;28;20342;-72
2023/08/18 12:06:07;;;;;;;;;;;12.70;84.50;;;;;;5114778;28;20372;-71
2023/08/18 12:08:33;;;;;;;;;;;12.70;84.40;;;;;;5114767;28;19912;-74
2023/08/18 12:11:00;;;;;;;;;;;12.60;84.50;;;;;;5115193;28;19970;-71
2023/08/18 12:13:33;;;;;;;;;;;12.60;84.60;;;;;;5114941;28;20004;-72
2023/08/18 12:16:00;;;;;;;;;;;12.60;84.60;;;;;;5096848;28;19908;-70
2023/08/18 12:18:28;;;;;;;;;;;12.50;84.90;;;;;;5112984;28;20007;-70
2023/08/18 12:20:54;;;;;;;;;;;12.60;85.20;;;;;;5114951;28;20245;-72
2023/08/18 12:23:21;;;;;;;;;;;12.50;84.80;;;;;;5113327;28;19974;-71
2023/08/18 12:25:48;;;;;;;;;;;12.50;85.00;;;;;;5114826;28;19907;-71
2023/08/18 12:28:15;;;;;;;;;;;12.50;85.00;;;;;;5115130;28;19991;-71
2023/08/18 12:30:42;;;;;;;;;;;12.50;85.10;;;;;;5114625;28;19934;-71
2023/08/18 12:33:08;;;;;;;;;;;12.50;85.10;;;;;;5114635;28;19919;-71
2023/08/18 12:35:35;;;;;;;;;;;12.40;85.00;;;;;;5114392;28;19908;-72
2023/08/18 12:38:02;;;;;;;;;;;12.40;84.90;;;;;;5115013;28;20327;-70
2023/08/18 12:40:29;;;;;;;;;;;12.40;84.90;;;;;;5114397;28;19908;-72
2023/08/18 12:42:56;;;;;;;;;;;12.40;85.20;;;;;;5109594;28;19912;-71
2023/08/18 12:45:22;;;;;;;;;;;12.30;85.20;;;;;;5105265;28;19920;-73
2023/08/18 12:47:49;;;;;;;;;;;12.30;84.80;;;;;;5096365;28;19915;-73
2023/08/18 12:50:16;;;;;;;;;;;12.30;84.90;;;;;;5114693;28;19912;-73
2023/08/18 12:52:42;;;;;;;;;;;12.30;84.90;;;;;;5114135;28;19915;-73
2023/08/18 12:55:09;;;;;;;;;;;12.30;84.90;;;;;;5114162;28;19908;-69
2023/08/18 12:57:36;;;;;;;;;;;12.30;84.90;;;;;;5114325;28;19908;-72
2023/08/18 13:00:03;;;;;;;;;;;12.30;84.50;;;;;;5113933;28;19908;-71
2023/08/18 13:02:30;;;;;;;;;;;12.30;84.50;;;;;;5113540;28;19919;-72
2023/08/18 13:04:56;;;;;;;;;;;12.30;84.50;;;;;;5113070;28;19916;-72
2023/08/18 13:07:24;;;;;;;;;;;12.30;84.50;;;;;;5113699;28;20276;-71
2023/08/18 13:09:51;;;;;;;;;;;12.30;84.80;;;;;;5113653;28;19918;-71
2023/08/18 13:12:18;;;;;;;;;;;12.20;84.30;;;;;;5095506;28;20376;-72
2023/08/18 13:14:45;;;;;;;;;;;12.30;84.30;;;;;;5113489;28;19912;-71
2023/08/18 13:17:12;;;;;;;;;;;12.30;84.50;;;;;;5114100;28;19908;-72
2023/08/18 13:19:39;;;;;;;;;;;12.30;84.30;;;;;;5113959;28;20268;-71
2023/08/18 13:22:11;;;;;;;;;;;12.30;84.40;;;;;;5102066;28;19920;-71
2023/08/18 13:24:38;;;;;;;;;;;12.30;84.80;;;;;;5093385;28;20335;-71
2023/08/18 13:27:05;;;;;;;;;;;12.20;84.60;;;;;;5093796;28;19908;-72
2023/08/18 13:29:32;;;;;;;;;;;12.30;85.00;;;;;;5093362;28;19912;-70
2023/08/18 13:31:59;;;;;;;;;;;12.20;84.80;;;;;;5097834;28;19916;-73
2023/08/18 13:34:25;;;;;;;;;;;12.30;84.90;;;;;;5112797;28;19956;-72
2023/08/18 13:36:52;;;;;;;;;;;12.30;85.10;;;;;;5113483;28;19908;-71
2023/08/18 13:39:19;;;;;;;;;;;12.30;85.30;;;;;;5113509;28;19904;-71
2023/08/18 13:41:46;;;;;;;;;;;12.20;85.50;;;;;;5113080;28;19911;-70
2023/08/18 13:44:13;;;;;;;;;;;12.30;85.70;;;;;;5112594;28;19931;-70
2023/08/18 13:46:40;;;;;;;;;;;12.20;85.70;;;;;;5113501;28;19907;-71
2023/08/18 13:49:09;;;;;;;;;;;12.30;86.10;;;;;;5113283;28;20002;-71
2023/08/18 13:51:35;;;;;;;;;;;12.20;86.10;;;;;;5113294;28;19915;-71
2023/08/18 13:54:02;;;;;;;;;;;12.20;86.30;;;;;;5112687;28;19912;-71
2023/08/18 13:56:29;;;;;;;;;;;12.20;86.70;;;;;;5112356;28;19914;-72
2023/08/18 13:58:56;;;;;;;;;;;12.10;86.60;;;;;;5112957;28;20011;-70
2023/08/18 14:01:22;;;;;;;;;;;12.20;86.70;;;;;;5113080;28;19908;-70
2023/08/18 14:03:49;;;;;;;;;;;12.20;86.90;;;;;;5112922;28;19911;-69
2023/08/18 14:06:15;;;;;;;;;;;12.10;87.30;;;;;;5094752;28;19921;-71
2023/08/18 14:08:42;;;;;;;;;;;12.10;87.70;;;;;;5113294;28;19908;-70
2023/08/18 14:11:13;;;;;;;;;;;12.10;87.80;;;;;;5095559;28;19923;-70
2023/08/18 14:13:41;;;;;;;;;;;12.00;88.00;;;;;;5092576;28;19915;-70
2023/08/18 14:16:09;;;;;;;;;;;12.00;88.30;;;;;;5092462;28;20037;-70